Time;durP1;ratioP1;P1;durP2;ratioP2;P2;SDS_P1;SDS_P2;PMS_P1;PMS_P2;Temp;Humidity;BMP_temperature;BMP_pressure;BME280_temperature;BME280_humidity;BME280_pressure;Samples;Min_cycle;Max_cycle;Signal;HPM_P1;HPM_P2
2022/09/18 00:01:00;;;;;;;1.60;0.70;;;;;;;19.24;48.52;92615.25;5030582;28;20506;-81
2022/09/18 00:03:27;;;;;;;1.75;0.70;;;;;;;19.27;48.66;92581.34;5027624;28;20029;-80
2022/09/18 00:05:52;;;;;;;0.80;0.80;;;;;;;19.39;48.49;92605.13;5031808;28;20761;-81
2022/09/18 00:08:18;;;;;;;4.13;1.40;;;;;;;18.94;47.71;92558.50;5029071;28;20037;-81
2022/09/18 00:10:45;;;;;;;2.00;0.77;;;;;;;18.96;48.68;92577.72;5027609;28;20662;-79
2022/09/18 00:13:12;;;;;;;1.52;0.80;;;;;;;18.89;50.40;92588.53;5028914;28;20090;-81
2022/09/18 00:15:38;;;;;;;1.83;0.95;;;;;;;18.52;51.98;92618.72;5028452;28;20072;-79
2022/09/18 00:18:04;;;;;;;4.60;1.13;;;;;;;17.87;54.06;92643.47;5026485;28;20421;-80
2022/09/18 00:20:32;;;;;;;1.55;0.80;;;;;;;17.11;56.22;92681.44;5030597;28;20049;-82
2022/09/18 00:22:58;;;;;;;2.42;0.80;;;;;;;16.58;57.35;92683.94;5029499;28;20115;-81
2022/09/18 00:25:23;;;;;;;2.75;0.90;;;;;;;15.95;57.88;92652.91;5029848;28;20086;-80
2022/09/18 00:27:49;;;;;;;0.68;0.60;;;;;;;15.55;58.91;92677.16;5025693;28;20591;-80
2022/09/18 00:30:14;;;;;;;1.15;0.60;;;;;;;15.10;59.31;92683.63;5024658;28;20139;-80
2022/09/18 00:32:40;;;;;;;0.68;0.60;;;;;;;14.77;60.29;92714.63;5029576;28;20021;-81
2022/09/18 00:35:06;;;;;;;0.60;0.60;;;;;;;14.59;61.50;92735.81;5026398;28;20438;-80
2022/09/18 00:37:31;;;;;;;0.90;0.60;;;;;;;14.63;61.89;92743.13;5027012;28;20052;-80
2022/09/18 00:39:56;;;;;;;1.83;0.77;;;;;;;14.70;61.10;92767.28;5028581;28;20036;-79
2022/09/18 00:42:22;;;;;;;0.60;0.60;;;;;;;14.64;60.74;92782.13;5026804;28;20036;-80
2022/09/18 00:44:48;;;;;;;1.42;0.82;;;;;;;14.44;60.98;92781.44;5028326;28;20746;-81
2022/09/18 00:47:28;;;;;;;2.33;0.68;;;;;;;14.09;60.09;92782.47;5028612;28;20091;-80
2022/09/18 00:50:00;;;;;;;1.45;0.50;;;;;;;13.71;60.37;92759.38;5059741;28;20500;-80
2022/09/18 00:52:32;;;;;;;2.28;0.50;;;;;;;13.66;61.75;92818.44;5028078;28;20523;-80
2022/09/18 00:55:03;;;;;;;0.55;0.50;;;;;;;13.58;62.34;92832.78;5027798;28;20478;-80
2022/09/18 00:57:32;;;;;;;0.50;0.50;;;;;;;13.23;62.55;92819.53;5029007;28;20025;-83
2022/09/18 01:00:01;;;;;;;0.50;0.50;;;;;;;12.78;62.68;92777.50;5028172;28;20048;-80
2022/09/18 01:02:26;;;;;;;1.90;0.50;;;;;;;12.61;61.60;92806.47;5029227;28;20602;-80
2022/09/18 01:04:52;;;;;;;0.55;0.47;;;;;;;12.28;63.04;92836.19;5029319;28;20591;-80
2022/09/18 01:07:42;;;;;;;0.50;0.50;;;;;;;12.26;64.10;92863.22;5028855;28;20024;-79
2022/09/18 01:10:39;;;;;;;2.30;0.50;;;;;;;12.21;64.43;92892.03;5029444;28;20044;-80
2022/09/18 01:13:13;;;;;;;1.80;0.95;;;;;;;11.92;66.69;92899.31;5029133;28;20107;-80
2022/09/18 01:15:48;;;;;;;0.90;0.60;;;;;;;11.85;67.20;92898.34;5059707;28;20029;-79
2022/09/18 01:18:31;;;;;;;0.50;0.50;;;;;;;11.88;68.35;92903.03;5028475;28;20029;-80
2022/09/18 01:21:38;;;;;;;2.85;0.80;;;;;;;11.70;69.05;92915.09;5057636;28;20136;-80
2022/09/18 01:24:28;;;;;;;1.48;0.85;;;;;;;11.61;69.45;92912.59;4975241;28;20201;-79
2022/09/18 01:26:55;;;;;;;0.60;0.60;;;;;;;11.48;69.25;92911.06;5022780;28;20049;-79
2022/09/18 01:29:41;;;;;;;1.15;0.70;;;;;;;11.71;67.79;92960.03;5029138;28;20032;-79
2022/09/18 01:32:21;;;;;;;3.22;0.60;;;;;;;11.70;69.31;92941.72;5030650;28;20071;-81
2022/09/18 01:35:03;;;;;;;0.57;0.57;;;;;;;11.40;68.46;92930.63;5046384;28;20037;-79
2022/09/18 01:37:40;;;;;;;0.50;0.50;;;;;;;11.36;69.00;92962.47;5058857;28;20032;-80
2022/09/18 01:40:11;;;;;;;15.77;0.98;;;;;;;11.23;69.89;92962.84;5029507;28;20028;-80
2022/09/18 01:42:39;;;;;;;0.65;0.50;;;;;;;10.93;70.34;92967.66;5026983;28;20022;-80
2022/09/18 01:45:09;;;;;;;1.38;0.50;;;;;;;10.76;69.53;92983.88;5031728;28;20036;-79
2022/09/18 01:47:40;;;;;;;2.53;0.60;;;;;;;10.23;69.38;92991.69;5030095;28;20149;-79
2022/09/18 01:50:08;;;;;;;0.35;0.35;;;;;;;10.05;70.38;92990.31;5033005;28;20027;-79
2022/09/18 01:52:43;;;;;;;0.70;0.70;;;;;;;10.26;71.23;93009.63;5031401;28;20022;-80
2022/09/18 01:55:16;;;;;;;2.00;0.50;;;;;;;10.07;70.77;93014.69;5031874;28;20025;-80
2022/09/18 01:58:00;;;;;;;0.40;0.40;;;;;;;9.64;71.33;92985.09;5033158;28;20061;-78
2022/09/18 02:00:29;;;;;;;0.40;0.40;;;;;;;9.95;71.64;93032.47;5046855;28;20029;-81
2022/09/18 02:03:01;;;;;;;0.40;0.40;;;;;;;10.23;71.19;93054.66;5028405;28;20024;-81
2022/09/18 02:05:34;;;;;;;0.40;0.40;;;;;;;10.15;68.92;93061.63;5029020;28;20025;-80
2022/09/18 02:08:13;;;;;;;0.40;0.40;;;;;;;10.06;68.73;93065.47;5034460;28;20025;-79
2022/09/18 02:10:46;;;;;;;1.02;0.40;;;;;;;9.95;68.70;93065.09;5028344;28;20477;-78
2022/09/18 02:13:17;;;;;;;0.57;0.57;;;;;;;10.07;69.05;93067.81;5032898;28;20594;-80
2022/09/18 02:15:47;;;;;;;0.40;0.40;;;;;;;10.01;68.27;93044.44;5032563;28;20037;-79
2022/09/18 02:18:19;;;;;;;0.50;0.50;;;;;;;9.82;69.52;93032.44;5038275;28;20710;-81
2022/09/18 02:20:46;;;;;;;0.50;0.50;;;;;;;9.89;68.55;93061.88;5031128;28;20059;-79
2022/09/18 02:23:12;;;;;;;0.47;0.47;;;;;;;9.66;69.15;93073.16;5032733;28;20112;-79
2022/09/18 02:26:03;;;;;;;0.50;0.50;;;;;;;9.62;68.27;93088.19;5032530;28;20606;-79
2022/09/18 02:28:30;;;;;;;0.50;0.50;;;;;;;9.60;68.44;93101.78;5031781;28;20570;-81
2022/09/18 02:30:57;;;;;;;0.45;0.45;;;;;;;9.15;68.31;93059.16;5029282;28;20052;-80
2022/09/18 02:33:23;;;;;;;0.50;0.50;;;;;;;9.22;68.30;93128.41;5031422;28;20040;-81
2022/09/18 02:35:56;;;;;;;1.35;0.57;;;;;;;8.95;69.44;93087.16;5033012;28;20029;-81
2022/09/18 02:38:42;;;;;;;4.57;0.60;;;;;;;9.42;69.39;93143.59;5030651;28;20043;-82
2022/09/18 02:41:15;;;;;;;0.85;0.50;;;;;;;9.16;69.35;93102.38;5034656;28;20024;-81
2022/09/18 02:43:56;;;;;;;0.50;0.50;;;;;;;9.34;69.17;93162.97;5031247;28;20392;-79
2022/09/18 02:46:44;;;;;;;0.45;0.45;;;;;;;9.13;69.33;93146.25;5033298;28;20392;-80
2022/09/18 02:49:31;;;;;;;1.65;0.60;;;;;;;9.45;70.59;93164.19;5035242;28;20042;-79
2022/09/18 02:52:07;;;;;;;0.60;0.60;;;;;;;9.19;69.62;93133.59;5030754;28;20079;-79
2022/09/18 02:54:44;;;;;;;0.68;0.68;;;;;;;9.76;69.43;93173.69;5046715;28;20048;-80
2022/09/18 02:57:15;;;;;;;0.73;0.60;;;;;;;9.70;68.34;93127.16;5060725;28;20116;-79
2022/09/18 02:59:52;;;;;;;0.88;0.88;;;;;;;9.76;67.30;93142.59;5030297;28;20491;-79
2022/09/18 03:02:22;;;;;;;0.50;0.50;;;;;;;9.77;67.19;93143.38;5032985;28;20026;-81
2022/09/18 03:04:48;;;;;;;0.50;0.50;;;;;;;9.94;66.01;93143.22;5033374;28;20040;-80
2022/09/18 03:07:14;;;;;;;0.70;0.70;;;;;;;10.43;65.52;93188.66;5032506;28;20060;-80
2022/09/18 03:09:41;;;;;;;0.55;0.55;;;;;;;10.27;64.85;93167.97;5030634;28;20025;-79
2022/09/18 03:12:07;;;;;;;0.70;0.70;;;;;;;10.37;64.04;93163.41;5031790;28;20017;-80
2022/09/18 03:14:33;;;;;;;0.50;0.50;;;;;;;10.33;64.02;93139.31;5030374;28;20020;-82
2022/09/18 03:16:59;;;;;;;0.60;0.60;;;;;;;10.56;63.53;93163.69;5031318;28;20029;-80
2022/09/18 03:19:25;;;;;;;1.50;0.60;;;;;;;10.57;63.16;93186.47;5030966;28;20392;-80
2022/09/18 03:21:51;;;;;;;0.70;0.70;;;;;;;10.49;62.50;93174.84;5031784;28;20076;-82
2022/09/18 03:24:18;;;;;;;0.60;0.60;;;;;;;10.62;61.94;93205.69;5030591;28;20033;-81
2022/09/18 03:26:43;;;;;;;0.60;0.60;;;;;;;10.47;62.15;93197.53;5033034;28;20049;-79
2022/09/18 03:29:09;;;;;;;0.70;0.70;;;;;;;10.10;61.43;93130.91;5028898;28;20130;-79
2022/09/18 03:31:35;;;;;;;0.60;0.60;;;;;;;10.35;61.74;93187.59;5031242;28;20026;-80
2022/09/18 03:34:01;;;;;;;0.70;0.70;;;;;;;10.19;61.64;93186.63;5029646;28;21321;-79
2022/09/18 03:36:26;;;;;;;0.60;0.60;;;;;;;10.19;62.01;93198.06;5030775;28;20416;-81
2022/09/18 03:38:51;;;;;;;0.77;0.77;;;;;;;9.51;62.07;93135.56;5029698;28;20025;-80
2022/09/18 03:41:17;;;;;;;0.68;0.68;;;;;;;10.06;61.62;93209.72;5028740;28;20021;-79
2022/09/18 03:43:42;;;;;;;0.90;0.90;;;;;;;9.95;62.66;93186.50;5030634;28;20540;-80
2022/09/18 03:46:07;;;;;;;1.13;0.70;;;;;;;10.22;61.72;93213.34;5032049;28;20021;-81
2022/09/18 03:48:33;;;;;;;1.10;0.70;;;;;;;10.00;62.67;93178.34;5028420;28;20055;-79
2022/09/18 03:50:58;;;;;;;0.60;0.60;;;;;;;10.30;61.82;93204.53;5031718;28;20029;-80
2022/09/18 03:53:24;;;;;;;0.70;0.70;;;;;;;10.06;61.65;93212.38;5028231;28;20107;-80
2022/09/18 03:55:50;;;;;;;0.70;0.70;;;;;;;9.91;62.63;93250.13;5030230;28;20028;-79
2022/09/18 03:58:15;;;;;;;0.68;0.68;;;;;;;9.73;63.35;93238.06;5030057;28;20028;-79
2022/09/18 04:00:41;;;;;;;0.80;0.80;;;;;;;10.02;63.25;93250.53;5032099;28;20426;-80
2022/09/18 04:03:07;;;;;;;1.40;1.33;;;;;;;9.98;63.16;93262.88;5028771;28;20036;-80
2022/09/18 04:05:32;;;;;;;0.80;0.80;;;;;;;9.95;63.42;93213.84;5029833;28;20025;-79
2022/09/18 04:07:58;;;;;;;0.88;0.88;;;;;;;10.09;61.67;93225.00;5031616;28;20032;-81
2022/09/18 04:10:25;;;;;;;0.75;0.75;;;;;;;10.18;61.22;93260.25;5029744;28;20020;-81
2022/09/18 04:12:51;;;;;;;0.70;0.70;;;;;;;10.09;61.78;93272.84;5029993;28;20024;-79
2022/09/18 04:15:16;;;;;;;0.80;0.80;;;;;;;9.82;61.66;93241.44;5030071;28;20117;-81
2022/09/18 04:17:42;;;;;;;1.08;0.98;;;;;;;9.97;61.93;93287.91;5028673;28;20554;-80
2022/09/18 04:20:08;;;;;;;1.88;1.05;;;;;;;9.75;62.07;93262.41;5031032;28;20915;-80
2022/09/18 04:22:34;;;;;;;1.02;0.90;;;;;;;9.76;62.12;93262.09;5028120;28;20923;-81
2022/09/18 04:24:59;;;;;;;1.00;1.00;;;;;;;9.72;62.00;93257.75;5030447;28;20025;-79
2022/09/18 04:27:25;;;;;;;0.98;0.90;;;;;;;9.47;62.25;93266.59;5030271;28;20025;-79
2022/09/18 04:29:50;;;;;;;1.33;1.23;;;;;;;9.35;63.11;93273.34;5031213;28;20033;-79
2022/09/18 04:32:15;;;;;;;1.75;1.10;;;;;;;9.36;64.44;93314.72;5028276;28;20028;-80
2022/09/18 04:34:42;;;;;;;1.02;0.90;;;;;;;8.95;64.86;93250.81;5030341;28;20029;-81
2022/09/18 04:37:07;;;;;;;1.52;1.20;;;;;;;9.01;65.11;93278.72;5027836;28;20029;-79
2022/09/18 04:39:33;;;;;;;1.20;1.10;;;;;;;9.16;65.15;93286.22;5029122;28;20386;-80
2022/09/18 04:41:58;;;;;;;1.20;1.10;;;;;;;9.19;65.51;93304.16;5027657;28;20628;-80
2022/09/18 04:44:24;;;;;;;1.65;1.35;;;;;;;9.11;66.43;93302.28;5030275;28;20485;-80
2022/09/18 04:46:50;;;;;;;2.15;1.30;;;;;;;9.23;65.99;93318.34;5043547;28;20029;-80
2022/09/18 04:49:15;;;;;;;0.95;0.95;;;;;;;9.56;66.01;93344.31;5045249;28;20044;-79
2022/09/18 04:51:41;;;;;;;1.48;1.00;;;;;;;9.63;65.26;93336.66;5027451;28;20037;-79
2022/09/18 04:54:06;;;;;;;1.02;0.95;;;;;;;9.76;65.02;93349.72;5028870;28;20026;-80
2022/09/18 04:56:32;;;;;;;0.90;0.90;;;;;;;9.62;65.88;93364.31;5028835;28;20075;-80
2022/09/18 04:58:58;;;;;;;0.88;0.88;;;;;;;9.82;65.56;93363.59;5029109;28;20029;-80
2022/09/18 05:01:24;;;;;;;1.25;1.15;;;;;;;9.66;65.05;93362.56;5029239;28;20035;-80
2022/09/18 05:03:50;;;;;;;1.05;0.98;;;;;;;9.47;65.71;93340.91;5028972;28;20021;-81
2022/09/18 05:06:15;;;;;;;1.17;1.08;;;;;;;9.59;66.38;93354.28;5028776;28;20032;-79
2022/09/18 05:08:41;;;;;;;0.85;0.85;;;;;;;9.78;65.89;93395.31;5026131;28;20028;-80
2022/09/18 05:11:06;;;;;;;1.55;1.17;;;;;;;9.76;65.97;93407.38;5030321;28;20544;-81
2022/09/18 05:13:31;;;;;;;1.02;0.95;;;;;;;9.79;65.34;93412.03;5035026;28;20588;-80
2022/09/18 05:15:57;;;;;;;0.80;0.80;;;;;;;9.69;65.17;93399.09;5025983;28;20030;-80
2022/09/18 05:18:23;;;;;;;2.92;0.90;;;;;;;9.70;62.43;93419.25;5029616;28;20472;-80
2022/09/18 05:20:48;;;;;;;0.77;0.75;;;;;;;9.60;62.59;93406.31;5026289;28;20061;-79
2022/09/18 05:23:14;;;;;;;0.80;0.80;;;;;;;9.57;61.91;93436.16;5057043;28;20032;-81
2022/09/18 05:25:41;;;;;;;0.80;0.80;;;;;;;9.33;61.84;93412.78;5057811;28;20029;-81
2022/09/18 05:28:08;;;;;;;2.63;1.73;;;;;;;8.84;62.27;93351.16;5058978;28;20029;-79
2022/09/18 05:30:33;;;;;;;4.68;3.60;;;;;;;9.32;62.75;93427.91;5028067;28;20051;-81
2022/09/18 05:33:04;;;;;;;3.92;3.40;;;;;;;9.25;61.42;93408.22;5026597;28;20025;-80
2022/09/18 05:35:31;;;;;;;2.28;2.08;;;;;;;9.27;60.88;93414.81;5028173;28;20021;-80
2022/09/18 05:37:57;;;;;;;6.13;5.53;;;;;;;9.32;61.76;93435.09;5059998;28;20021;-82
2022/09/18 05:40:25;;;;;;;2.30;2.10;;;;;;;9.25;61.45;93440.84;5030349;28;20084;-81
2022/09/18 05:42:54;;;;;;;1.13;1.02;;;;;;;9.30;61.27;93448.66;5028660;28;20045;-81
2022/09/18 05:45:20;;;;;;;1.25;1.15;;;;;;;9.13;61.03;93405.44;5027617;28;21032;-80
2022/09/18 05:48:12;;;;;;;24.35;21.55;;;;;;;9.20;60.35;93438.34;5028726;28;20017;-79
2022/09/18 05:50:37;;;;;;;29.02;19.92;;;;;;;9.21;60.82;93444.44;5053222;28;20045;-79
2022/09/18 05:53:14;;;;;;;8.85;7.95;;;;;;;9.05;60.34;93414.94;5027977;28;20109;-78
2022/09/18 05:55:40;;;;;;;5.30;4.80;;;;;;;8.76;59.43;93417.41;5030817;28;20029;-79
2022/09/18 05:58:10;;;;;;;61.17;35.08;;;;;;;8.99;60.65;93432.88;5028307;28;20447;-79
2022/09/18 06:00:36;;;;;;;85.00;43.60;;;;;;;8.73;59.96;93413.53;5037857;28;20033;-81
2022/09/18 06:03:08;;;;;;;35.85;23.60;;;;;;;8.66;60.38;93401.81;5028349;28;20033;-79
2022/09/18 06:05:36;;;;;;;6.25;4.53;;;;;;;8.98;60.24;93454.41;5030258;28;20059;-81
2022/09/18 06:08:04;;;;;;;4.07;3.15;;;;;;;8.93;59.83;93450.03;5027898;28;20059;-79
2022/09/18 06:10:31;;;;;;;2.45;2.25;;;;;;;8.86;59.51;93433.00;5028277;28;20895;-80
2022/09/18 06:13:04;;;;;;;1.98;1.25;;;;;;;8.87;59.03;93439.88;5027235;28;20028;-82
2022/09/18 06:15:29;;;;;;;1.05;0.93;;;;;;;8.95;59.01;93452.41;5028580;28;20056;-81
2022/09/18 06:17:55;;;;;;;1.48;1.35;;;;;;;8.89;60.26;93432.41;5028452;28;20490;-79
2022/09/18 06:20:20;;;;;;;1.77;1.42;;;;;;;8.99;59.83;93432.88;5025707;28;20037;-79
2022/09/18 06:22:46;;;;;;;8.75;4.18;;;;;;;9.30;59.95;93456.63;5028926;28;20082;-80
2022/09/18 06:25:11;;;;;;;6.93;5.25;;;;;;;9.39;59.42;93462.69;5024319;28;20037;-82
2022/09/18 06:27:37;;;;;;;2.10;1.70;;;;;;;9.45;58.71;93490.66;5026003;28;20032;-81
2022/09/18 06:30:04;;;;;;;1.25;1.15;;;;;;;9.19;59.08;93439.47;5028895;28;20037;-80
2022/09/18 06:32:29;;;;;;;1.10;1.00;;;;;;;9.32;59.17;93478.34;5030359;28;20022;-81
2022/09/18 06:34:54;;;;;;;0.90;0.80;;;;;;;9.28;59.13;93456.16;5029471;28;20362;-80
2022/09/18 06:37:20;;;;;;;2.50;1.50;;;;;;;9.17;58.67;93446.16;5030240;28;20036;-80
2022/09/18 06:39:45;;;;;;;2.17;1.88;;;;;;;9.72;58.92;93491.41;5029296;28;20049;-80
2022/09/18 06:42:11;;;;;;;4.78;3.03;;;;;;;9.87;57.38;93514.84;5028442;28;20037;-79
2022/09/18 06:44:36;;;;;;;13.48;7.93;;;;;;;9.45;57.04;93464.09;5032890;28;20021;-82
2022/09/18 06:47:02;;;;;;;22.65;12.45;;;;;;;9.58;56.30;93480.19;5029863;28;20147;-80
2022/09/18 06:49:28;;;;;;;23.20;11.70;;;;;;;9.76;56.34;93508.28;5058335;28;20044;-81
2022/09/18 06:51:54;;;;;;;12.27;6.45;;;;;;;10.08;56.84;93531.66;5028221;28;20026;-80
2022/09/18 06:54:19;;;;;;;2.95;2.10;;;;;;;10.12;56.64;93505.25;5027959;28;20586;-81
2022/09/18 06:56:46;;;;;;;6.47;3.88;;;;;;;10.31;56.68;93533.00;5025732;28;20037;-81
2022/09/18 06:59:12;;;;;;;4.32;3.28;;;;;;;10.35;57.05;93519.09;5024388;28;20059;-80
2022/09/18 07:01:37;;;;;;;4.45;2.85;;;;;;;10.49;55.99;93532.97;5029677;28;20107;-81
2022/09/18 07:04:03;;;;;;;13.85;6.70;;;;;;;10.57;55.10;93535.59;5031288;28;20025;-80
2022/09/18 07:06:28;;;;;;;7.40;4.22;;;;;;;10.53;55.41;93537.34;5030275;28;20032;-80
2022/09/18 07:08:54;;;;;;;4.15;2.17;;;;;;;10.26;55.59;93489.88;5029840;28;20378;-81
2022/09/18 07:11:20;;;;;;;2.85;1.10;;;;;;;10.55;55.25;93524.50;5031083;28;20028;-81
2022/09/18 07:13:46;;;;;;;3.75;2.42;;;;;;;10.61;55.20;93549.81;5032981;28;20035;-81
2022/09/18 07:16:12;;;;;;;1.85;1.40;;;;;;;10.44;55.30;93507.34;5024495;28;20029;-80
2022/09/18 07:18:38;;;;;;;5.45;4.18;;;;;;;10.77;55.80;93550.06;5060585;28;20029;-81
2022/09/18 07:21:04;;;;;;;2.40;1.60;;;;;;;10.35;55.44;93513.75;5029888;28;20050;-80
2022/09/18 07:23:31;;;;;;;5.18;2.88;;;;;;;10.29;55.22;93500.66;5030824;28;20039;-82
2022/09/18 07:26:00;;;;;;;15.75;8.88;;;;;;;10.53;55.75;93541.88;5030300;28;20090;-80
2022/09/18 07:28:26;;;;;;;5.15;3.55;;;;;;;10.33;55.80;93508.75;5027761;28;20443;-80
2022/09/18 07:30:51;;;;;;;4.93;3.30;;;;;;;10.56;54.82;93543.91;5030948;28;20037;-80
2022/09/18 07:33:16;;;;;;;1.73;1.50;;;;;;;10.43;54.79;93547.53;5030468;28;20022;-80
2022/09/18 07:35:42;;;;;;;0.95;0.90;;;;;;;10.40;54.85;93564.13;5029599;28;20564;-82
2022/09/18 07:38:08;;;;;;;2.33;2.13;;;;;;;10.39;54.74;93542.06;5031888;28;20025;-80
2022/09/18 07:40:34;;;;;;;1.15;1.00;;;;;;;10.17;54.90;93531.66;5028652;28;20029;-82
2022/09/18 07:43:01;;;;;;;1.20;1.10;;;;;;;10.33;55.46;93538.78;5057862;28;20032;-81
2022/09/18 07:45:27;;;;;;;1.65;1.23;;;;;;;10.39;55.81;93562.56;5025582;28;20053;-80
2022/09/18 07:47:52;;;;;;;1.05;1.00;;;;;;;10.45;54.92;93563.97;5057890;28;20091;-78
2022/09/18 07:50:18;;;;;;;1.55;1.00;;;;;;;10.56;55.80;93565.94;5025465;28;20854;-79
2022/09/18 07:52:54;;;;;;;1.25;1.00;;;;;;;10.60;54.56;93563.44;5028736;28;20018;-79
2022/09/18 07:55:20;;;;;;;1.33;1.23;;;;;;;10.56;54.90;93567.84;5026315;28;20515;-79
2022/09/18 07:57:47;;;;;;;1.33;1.23;;;;;;;10.30;54.25;93544.75;5028822;28;20063;-80
2022/09/18 08:00:14;;;;;;;2.38;1.02;;;;;;;10.35;53.64;93548.31;5026806;28;20112;-79
2022/09/18 08:02:40;;;;;;;1.15;0.80;;;;;;;10.09;54.41;93527.91;5029710;28;20014;-79
2022/09/18 08:05:06;;;;;;;0.98;0.82;;;;;;;10.43;55.08;93579.44;5026126;28;20120;-81
2022/09/18 08:07:31;;;;;;;0.90;0.90;;;;;;;10.24;54.38;93548.66;5028086;28;20112;-80
2022/09/18 08:09:57;;;;;;;0.98;0.90;;;;;;;10.58;54.69;93555.00;5025404;28;20137;-79
2022/09/18 08:12:23;;;;;;;2.25;1.25;;;;;;;10.49;52.98;93557.69;5029621;28;20021;-80
2022/09/18 08:14:48;;;;;;;1.58;1.13;;;;;;;10.50;53.74;93585.06;5027703;28;20029;-81
2022/09/18 08:17:14;;;;;;;1.00;0.90;;;;;;;10.39;53.34;93552.72;5029066;28;20068;-80
2022/09/18 08:19:39;;;;;;;1.10;1.00;;;;;;;10.22;53.68;93521.59;5028988;28;20031;-82
2022/09/18 08:22:04;;;;;;;1.55;0.85;;;;;;;10.52;53.54;93564.22;5028254;28;20053;-80
2022/09/18 08:24:32;;;;;;;1.80;1.00;;;;;;;10.59;53.41;93573.28;5032141;28;20663;-80
2022/09/18 08:27:02;;;;;;;1.60;1.00;;;;;;;10.58;53.33;93553.13;5027955;28;20067;-81
2022/09/18 08:29:29;;;;;;;2.35;1.10;;;;;;;10.62;53.14;93587.81;5029151;28;20030;-82
2022/09/18 08:31:55;;;;;;;1.92;1.10;;;;;;;10.57;53.83;93574.69;5029215;28;20029;-81
2022/09/18 08:34:20;;;;;;;1.30;1.17;;;;;;;10.66;53.72;93572.81;5030185;28;20032;-82
2022/09/18 08:36:46;;;;;;;2.00;1.27;;;;;;;10.59;54.18;93572.50;5030580;28;20016;-80
2022/09/18 08:39:11;;;;;;;1.35;1.20;;;;;;;10.37;53.60;93516.94;5030252;28;20021;-80
2022/09/18 08:42:06;;;;;;;1.83;1.10;;;;;;;10.78;52.39;93570.25;5028743;28;20071;-80
2022/09/18 08:44:48;;;;;;;1.33;1.00;;;;;;;10.18;52.62;93502.09;5029048;28;20124;-82
2022/09/18 08:47:25;;;;;;;1.48;1.08;;;;;;;10.57;53.44;93537.47;5030740;28;20656;-80
2022/09/18 08:49:56;;;;;;;2.95;1.30;;;;;;;10.98;52.33;93584.72;5025982;28;20036;-79
2022/09/18 08:52:27;;;;;;;3.08;1.80;;;;;;;11.04;53.58;93592.22;5028626;28;20064;-79
2022/09/18 08:55:03;;;;;;;1.23;0.82;;;;;;;10.91;52.95;93574.56;5028506;28;20026;-79
2022/09/18 08:57:43;;;;;;;1.50;0.73;;;;;;;10.53;52.56;93531.22;5031122;28;20032;-82
2022/09/18 09:00:18;;;;;;;1.13;1.02;;;;;;;10.60;51.64;93547.50;5028732;28;20029;-79
2022/09/18 09:02:50;;;;;;;;;;;;;;;10.69;51.11;93572.16;5030604;28;20048;-80
2022/09/18 09:05:25;;;;;;;1.23;0.80;;;;;;;10.63;51.52;93565.47;5038390;28;19999;-79
2022/09/18 09:07:56;;;;;;;0.80;0.80;;;;;;;10.94;52.10;93589.13;5035492;28;20025;-80
2022/09/18 09:10:42;;;;;;;0.80;0.80;;;;;;;10.80;51.46;93584.03;5029770;28;20468;-81
2022/09/18 09:13:36;;;;;;;3.30;0.80;;;;;;;10.75;52.51;93586.84;5026789;28;20489;-81
2022/09/18 09:16:27;;;;;;;2.75;1.13;;;;;;;10.65;53.18;93597.84;5028506;28;20028;-79
2022/09/18 09:18:59;;;;;;;2.13;1.25;;;;;;;10.55;54.37;93588.34;5029250;28;20044;-79
2022/09/18 09:21:48;;;;;;;1.55;0.98;;;;;;;10.55;53.31;93596.31;5031966;28;20544;-83
2022/09/18 09:24:31;;;;;;;3.78;2.15;;;;;;;10.62;53.34;93625.84;5028416;28;20053;-81
2022/09/18 09:27:04;;;;;;;1.95;1.60;;;;;;;10.43;53.33;93621.97;5029298;28;20390;-80
2022/09/18 09:29:36;;;;;;;1.20;1.10;;;;;;;10.14;52.34;93614.63;5031444;28;20024;-82
2022/09/18 09:32:27;;;;;;;1.30;0.90;;;;;;;10.28;52.94;93616.03;5028136;28;20705;-80
2022/09/18 09:35:15;;;;;;;2.25;1.35;;;;;;;10.22;52.90;93646.50;5027858;28;20041;-82
2022/09/18 09:37:47;;;;;;;1.45;1.00;;;;;;;9.86;53.65;93624.81;5005409;28;20065;-79
2022/09/18 09:40:22;;;;;;;2.88;1.40;;;;;;;9.97;53.65;93663.28;5059169;28;20029;-81
2022/09/18 09:43:16;;;;;;;0.80;0.80;;;;;;;10.01;53.78;93656.25;5035201;28;20037;-83
2022/09/18 09:45:47;;;;;;;1.92;1.40;;;;;;;9.99;54.27;93669.03;5023717;28;20363;-79
2022/09/18 09:48:43;;;;;;;2.15;1.23;;;;;;;10.26;54.31;93676.72;5029009;28;20025;-81
2022/09/18 09:51:31;;;;;;;2.22;1.83;;;;;;;10.31;51.40;93684.53;5028274;28;20014;-79
2022/09/18 09:54:00;;;;;;;2.38;1.65;;;;;;;10.26;50.80;93682.03;5029076;28;20029;-80
2022/09/18 09:56:40;;;;;;;16.60;12.70;;;;;;;10.36;50.40;93680.97;5028929;28;20091;-80
2022/09/18 09:59:32;;;;;;;10.13;7.82;;;;;;;10.50;49.99;93681.56;5028871;28;20040;-80
2022/09/18 10:02:22;;;;;;;15.15;7.10;;;;;;;10.55;49.72;93662.00;5006018;28;20144;-80
2022/09/18 10:05:15;;;;;;;9.68;4.28;;;;;;;10.67;49.89;93681.53;5028385;28;20548;-81
2022/09/18 10:08:17;;;;;;;6.85;4.85;;;;;;;10.80;50.00;93682.44;5029604;28;20107;-79
2022/09/18 10:10:51;;;;;;;26.65;10.50;;;;;;;10.71;49.69;93663.81;5018567;28;20068;-81
2022/09/18 10:13:35;;;;;;;22.83;13.20;;;;;;;10.88;49.41;93671.00;5032206;28;20358;-80
2022/09/18 10:16:23;;;;;;;10.70;6.50;;;;;;;11.13;49.62;93675.44;5033143;28;20478;-81
2022/09/18 10:18:49;;;;;;;8.10;6.00;;;;;;;11.05;49.80;93654.94;5031857;28;20156;-80
2022/09/18 10:21:25;;;;;;;3.85;2.90;;;;;;;11.34;50.08;93672.06;5031772;28;20044;-80
2022/09/18 10:23:59;;;;;;;3.47;3.15;;;;;;;11.40;49.31;93692.84;5032563;28;20098;-81
2022/09/18 10:26:39;;;;;;;2.40;2.20;;;;;;;11.33;48.67;93681.16;5030924;28;20033;-81
2022/09/18 10:29:05;;;;;;;3.58;3.22;;;;;;;11.11;48.56;93648.34;5044709;28;20133;-79
2022/09/18 10:31:57;;;;;;;5.85;3.60;;;;;;;11.17;50.00;93664.94;5031094;28;20067;-82
2022/09/18 10:34:30;;;;;;;4.85;3.72;;;;;;;11.12;49.77;93657.91;5029204;28;20025;-79
2022/09/18 10:36:55;;;;;;;10.50;4.45;;;;;;;11.38;50.05;93697.75;5030446;28;20033;-80
2022/09/18 10:39:28;;;;;;;6.85;4.38;;;;;;;11.51;49.95;93709.28;5027143;28;20033;-82
2022/09/18 10:42:04;;;;;;;6.72;4.65;;;;;;;11.50;49.46;93702.38;5028532;28;20034;-81
2022/09/18 10:44:35;;;;;;;9.60;5.88;;;;;;;11.54;49.50;93698.00;5062588;28;20037;-82
2022/09/18 10:47:18;;;;;;;25.98;13.55;;;;;;;11.44;49.52;93698.34;5029773;28;20025;-80
2022/09/18 10:50:01;;;;;;;12.43;7.97;;;;;;;11.40;49.14;93686.75;5030992;28;20036;-81
2022/09/18 10:52:30;;;;;;;8.02;4.60;;;;;;;11.37;49.29;93698.84;5054095;28;20047;-80
2022/09/18 10:55:05;;;;;;;17.77;9.07;;;;;;;11.30;48.42;93719.84;5029459;28;20033;-80
2022/09/18 10:57:37;;;;;;;18.77;8.70;;;;;;;11.27;49.54;93722.38;5026776;28;20035;-77
2022/09/18 11:00:36;;;;;;;49.65;19.30;;;;;;;11.24;50.18;93715.03;5027429;28;20037;-80
2022/09/18 11:03:36;;;;;;;29.38;14.45;;;;;;;11.38;50.16;93720.91;5028696;28;20059;-78
2022/09/18 11:06:05;;;;;;;5.15;4.22;;;;;;;11.32;50.38;93695.56;5025842;28;20057;-78
2022/09/18 11:08:36;;;;;;;8.80;5.10;;;;;;;11.51;49.82;93714.63;5030771;28;20450;-80
2022/09/18 11:11:20;;;;;;;4.93;3.53;;;;;;;11.34;49.01;93690.72;5040211;28;20028;-77
2022/09/18 11:13:55;;;;;;;4.90;4.35;;;;;;;11.41;49.74;93704.28;5031252;28;20443;-78
2022/09/18 11:16:34;;;;;;;6.97;3.90;;;;;;;11.50;48.05;93721.78;5033095;28;20048;-78
2022/09/18 11:19:05;;;;;;;4.95;4.13;;;;;;;11.57;49.10;93724.00;5033868;28;20040;-78
2022/09/18 11:21:31;;;;;;;4.25;3.83;;;;;;;11.58;47.84;93709.59;5033051;28;20053;-78
2022/09/18 11:24:05;;;;;;;5.60;4.47;;;;;;;11.47;48.26;93714.47;5030977;28;20045;-79
2022/09/18 11:26:31;;;;;;;5.10;4.30;;;;;;;11.27;48.69;93688.53;5033081;28;20487;-79
2022/09/18 11:29:01;;;;;;;6.07;4.07;;;;;;;11.52;49.60;93727.63;5035684;28;20057;-79
2022/09/18 11:31:38;;;;;;;5.05;4.18;;;;;;;11.36;49.08;93713.25;5033377;28;20086;-80
2022/09/18 11:34:10;;;;;;;4.80;3.10;;;;;;;11.20;48.46;93706.88;5029829;28;20025;-79
2022/09/18 11:36:39;;;;;;;3.53;3.08;;;;;;;11.36;49.22;93707.13;5027984;28;20029;-81
2022/09/18 11:39:14;;;;;;;3.92;3.35;;;;;;;11.57;49.18;93718.66;5028686;28;20033;-78
2022/09/18 11:41:40;;;;;;;3.38;3.08;;;;;;;11.52;48.94;93716.19;5029125;28;20082;-79
2022/09/18 11:44:21;;;;;;;3.55;3.25;;;;;;;11.72;48.68;93731.44;5027735;28;20025;-79
2022/09/18 11:47:07;;;;;;;5.72;2.90;;;;;;;11.56;48.85;93738.41;5028071;28;20054;-79
2022/09/18 11:49:59;;;;;;;4.25;2.85;;;;;;;11.68;49.35;93725.19;5060996;28;20144;-78
2022/09/18 11:52:46;;;;;;;2.95;2.53;;;;;;;11.75;47.70;93730.78;5025350;28;20040;-79